Ohio Valley — WDB9880 — position and weather

sailwx.info

Track history (hours):
 
Tides and Currents Weather Stations Pressure Air Temp Water Temp Dewpoint Dewpoint Depression Visibility Wind Speed Wind Dir Waves Ship Positions

Ohio Valley

Owner: Marathon Petroleum Company LP, Findlay, OH. More information available from US FCC via Universal Licensing System and Coast Guard Vessel Documentation Center.

Last reported at 2018-Mar-28 00:46 UTC. Time now 2018-May-23 01:33 UTC.
Position N 38°38' W 090°11'.
Warning: this ship's position is 56 days out of date.

Length 45 m; draft 3 m.

Type: Towing. MMSI: 366984390.

Date/timePositionNaut miles runAvg speedWind from/ knotsBaromVisibWave heightAir tempDewpointWater temp
2018-Mar-28 00:46N 38°38' W 090°11'2 8.4
2018-Mar-28 00:29N 38°40' W 090°11'8 5.0
2018-Mar-27 22:50N 38°48' W 090°07'2 5.4
2018-Mar-27 22:31N 38°49' W 090°07'0 0.9
2018-Mar-27 22:00N 38°50' W 090°07'0 0.1
2018-Mar-27 21:27N 38°50' W 090°07'0 0.7
2018-Mar-27 21:00N 38°50' W 090°07'1 1.9
2018-Mar-27 20:31N 38°51' W 090°07'0 0.0
2018-Mar-27 20:01N 38°51' W 090°07'0 0.0
2018-Mar-27 19:31N 38°51' W 090°07'0 0.0
2018-Mar-27 19:01N 38°51' W 090°07'0 0.0
2018-Mar-27 18:31N 38°51' W 090°07'0 0.0
2018-Mar-27 18:01N 38°51' W 090°07'0 0.0
2018-Mar-27 17:31N 38°51' W 090°07'0 0.0
2018-Mar-27 17:01N 38°51' W 090°07'0 0.0
2018-Mar-27 16:31N 38°51' W 090°07'1 2.1
2018-Mar-27 16:01N 38°50' W 090°07'0 0.5
2018-Mar-27 15:30N 38°50' W 090°07'0 0.2
2018-Mar-27 15:01N 38°50' W 090°07'0 0.0
2018-Mar-27 14:31N 38°50' W 090°07'0 0.0
2018-Mar-27 14:00N 38°50' W 090°07'0 0.0
2018-Mar-27 13:31N 38°50' W 090°07'0 0.0
2018-Mar-27 13:00N 38°50' W 090°07'0 0.0
2018-Mar-27 12:31N 38°50' W 090°07'0 0.0
2018-Mar-27 12:01N 38°50' W 090°07'0 0.0
2018-Mar-27 11:30N 38°50' W 090°07'0 0.0
2018-Mar-27 11:01N 38°50' W 090°07'0 0.0
2018-Mar-27 10:31N 38°50' W 090°07'0 0.0
2018-Mar-27 10:01N 38°50' W 090°07'0 0.0
2018-Mar-27 09:31N 38°50' W 090°07'0 0.0
2018-Mar-27 09:01N 38°50' W 090°07'0 0.0
2018-Mar-27 08:31N 38°50' W 090°07'0 0.0
2018-Mar-27 08:00N 38°50' W 090°07'0 0.0
2018-Mar-27 07:31N 38°50' W 090°07'0 0.0
2018-Mar-27 07:01N 38°50' W 090°07'0 0.0
2018-Mar-27 06:31N 38°50' W 090°07'0 0.0
2018-Mar-27 06:01N 38°50' W 090°07'0 0.0
2018-Mar-27 05:31N 38°50' W 090°07'0 0.0
2018-Mar-27 05:01N 38°50' W 090°07'0 0.0
2018-Mar-27 04:31N 38°50' W 090°07'0 0.0
2018-Mar-27 04:01N 38°50' W 090°07'0 0.0
2018-Mar-27 03:31N 38°50' W 090°07'0 0.0
2018-Mar-27 03:01N 38°50' W 090°07'0 0.0
2018-Mar-27 02:31N 38°50' W 090°07'0 0.0
2018-Mar-27 02:01N 38°50' W 090°07'0 0.0
2018-Mar-27 01:31N 38°50' W 090°07'0 0.0
2018-Mar-27 01:01N 38°50' W 090°07'0 0.4
2018-Mar-27 00:30N 38°50' W 090°07'0 0.0
2018-Mar-26 23:57N 38°50' W 090°07'0 0.0
2018-Mar-26 23:31N 38°50' W 090°07'0 0.0
2018-Mar-26 23:00N 38°50' W 090°07'0 0.0
2018-Mar-26 22:31N 38°50' W 090°07'0 0.0
2018-Mar-26 22:01N 38°50' W 090°07'0 0.0
2018-Mar-26 21:31N 38°50' W 090°07'0 0.0
2018-Mar-26 21:01N 38°50' W 090°07'0 0.0
2018-Mar-26 20:30N 38°50' W 090°07'0 0.0
2018-Mar-26 20:01N 38°50' W 090°07'0 0.0
2018-Mar-26 19:30N 38°50' W 090°07'0 0.3
2018-Mar-26 19:00N 38°50' W 090°07'0 0.1
2018-Mar-26 18:31N 38°50' W 090°07'0 0.0
2018-Mar-26 18:01N 38°50' W 090°07'0 1.0
2018-Mar-26 17:31N 38°49' W 090°07'0 0.9
2018-Mar-26 17:01N 38°50' W 090°07'0 0.0
2018-Mar-26 16:31N 38°50' W 090°07'0 0.0
2018-Mar-26 15:59N 38°50' W 090°07'0 0.0
2018-Mar-26 15:31N 38°50' W 090°07'0 0.0
2018-Mar-26 14:58N 38°50' W 090°07'0 0.0
2018-Mar-26 14:30N 38°50' W 090°07'0 0.0
2018-Mar-26 14:00N 38°50' W 090°07'  
2018-Mar-23 06:36N 38°50' W 090°07'0 0.0
2018-Mar-23 06:31N 38°50' W 090°07'0 0.0
2018-Mar-23 05:59N 38°50' W 090°07'0 0.0
2018-Mar-23 05:30N 38°50' W 090°07'0 0.0
2018-Mar-23 05:00N 38°50' W 090°07'0 0.0
2018-Mar-23 04:31N 38°50' W 090°07'0 0.0
2018-Mar-23 04:00N 38°50' W 090°07'0 0.0
2018-Mar-23 03:31N 38°50' W 090°07'0 0.0
2018-Mar-23 03:00N 38°50' W 090°07'0 0.0
2018-Mar-23 02:31N 38°50' W 090°07'0 0.0
2018-Mar-23 01:59N 38°50' W 090°07'0 0.0
2018-Mar-23 01:30N 38°50' W 090°07'0 0.0
2018-Mar-23 01:01N 38°50' W 090°07'0 0.0
2018-Mar-23 00:30N 38°50' W 090°07'0 0.0
2018-Mar-23 00:00N 38°50' W 090°07'0 0.0
2018-Mar-22 23:30N 38°50' W 090°07'0 0.0
2018-Mar-22 23:01N 38°50' W 090°07'0 0.0
2018-Mar-22 22:31N 38°50' W 090°07'0 0.0
2018-Mar-22 22:00N 38°50' W 090°07'0 0.0
2018-Mar-22 21:30N 38°50' W 090°07'0 0.0
2018-Mar-22 21:01N 38°50' W 090°07'0 0.0
2018-Mar-22 20:31N 38°50' W 090°07'0 0.0
2018-Mar-22 20:01N 38°50' W 090°07'0 0.0
2018-Mar-22 19:30N 38°50' W 090°07'0 0.0
2018-Mar-22 19:01N 38°50' W 090°07'0 0.0
2018-Mar-22 18:31N 38°50' W 090°07'0 0.0
2018-Mar-22 18:00N 38°50' W 090°07'0 0.0
2018-Mar-22 17:30N 38°50' W 090°07'0 0.0
2018-Mar-22 17:00N 38°50' W 090°07'0 0.0
2018-Mar-22 16:31N 38°50' W 090°07'0 0.0
2018-Mar-22 16:01N 38°50' W 090°07'0 0.0
2018-Mar-22 15:30N 38°50' W 090°07'0 0.0
2018-Mar-22 15:00N 38°50' W 090°07'0 0.0
2018-Mar-22 14:30N 38°50' W 090°07'0 0.0
2018-Mar-22 14:00N 38°50' W 090°07'0 0.0
2018-Mar-22 13:31N 38°50' W 090°07'0 0.0
2018-Mar-22 13:01N 38°50' W 090°07'0 0.0
2018-Mar-22 12:31N 38°50' W 090°07'0 0.0
2018-Mar-22 12:01N 38°50' W 090°07'0 0.0
2018-Mar-22 11:31N 38°50' W 090°07'0 0.0
2018-Mar-22 11:01N 38°50' W 090°07'0 0.0
2018-Mar-22 10:31N 38°50' W 090°07'0 0.0
2018-Mar-22 10:00N 38°50' W 090°07'0 0.0
2018-Mar-22 09:29N 38°50' W 090°07'0 0.0
2018-Mar-22 09:01N 38°50' W 090°07'0 0.0
2018-Mar-22 08:31N 38°50' W 090°07'0 0.0
2018-Mar-22 08:01N 38°50' W 090°07'0 0.0
2018-Mar-22 07:31N 38°50' W 090°07'0 0.0
2018-Mar-22 07:01N 38°50' W 090°07'0 0.0
2018-Mar-22 06:30N 38°50' W 090°07'0 0.0
2018-Mar-22 06:01N 38°50' W 090°07'0 0.0
2018-Mar-22 05:31N 38°50' W 090°07'0 0.0
2018-Mar-22 05:01N 38°50' W 090°07'0 0.0
2018-Mar-22 04:31N 38°50' W 090°07'0 0.0
2018-Mar-22 04:00N 38°50' W 090°07'0 0.0
2018-Mar-22 03:31N 38°50' W 090°07'0 0.0
2018-Mar-22 03:01N 38°50' W 090°07'0 0.0
2018-Mar-22 02:31N 38°50' W 090°07'0 0.0
2018-Mar-22 02:01N 38°50' W 090°07'0 0.0
2018-Mar-22 01:31N 38°50' W 090°07'0 0.0
2018-Mar-22 00:59N 38°50' W 090°07'0 0.0
2018-Mar-22 00:31N 38°50' W 090°07'0 0.0
2018-Mar-22 00:01N 38°50' W 090°07'0 0.0
2018-Mar-21 23:30N 38°50' W 090°07'0 0.0
2018-Mar-21 23:00N 38°50' W 090°07'0 0.0
2018-Mar-21 22:30N 38°50' W 090°07'0 0.0
2018-Mar-21 21:54N 38°50' W 090°07'0 0.0
2018-Mar-21 21:29N 38°50' W 090°07'0 0.0
2018-Mar-21 20:59N 38°50' W 090°07'0 0.0
2018-Mar-21 20:30N 38°50' W 090°07'0 0.0
2018-Mar-21 20:01N 38°50' W 090°07'0 0.0
2018-Mar-21 19:31N 38°50' W 090°07'0 0.0
2018-Mar-21 18:58N 38°50' W 090°07'0 0.0
2018-Mar-21 18:30N 38°50' W 090°07'0 0.3
2018-Mar-21 18:00N 38°50' W 090°07'0 0.0
2018-Mar-21 17:16N 38°50' W 090°07'0 0.0
2018-Mar-21 16:51N 38°50' W 090°07'0 0.0
2018-Mar-21 16:31N 38°50' W 090°07'0 0.4
2018-Mar-21 16:00N 38°50' W 090°07'0 0.0
2018-Mar-21 15:29N 38°50' W 090°07'0 0.0
2018-Mar-21 15:00N 38°50' W 090°07'0 0.0
2018-Mar-21 14:31N 38°50' W 090°07'0 0.0
2018-Mar-21 14:00N 38°50' W 090°07'0 0.0
2018-Mar-21 13:31N 38°50' W 090°07'0 0.0
2018-Mar-21 13:01N 38°50' W 090°07'0 0.0
2018-Mar-21 12:29N 38°50' W 090°07'0 0.0
2018-Mar-21 11:59N 38°50' W 090°07'0 0.0
2018-Mar-21 11:30N 38°50' W 090°07'0 0.0
2018-Mar-21 11:00N 38°50' W 090°07'0 0.0
2018-Mar-21 10:31N 38°50' W 090°07'0 0.0
2018-Mar-21 10:01N 38°50' W 090°07'0 0.0
2018-Mar-21 09:30N 38°50' W 090°07'0 0.0
2018-Mar-21 09:01N 38°50' W 090°07'0 0.0
2018-Mar-21 08:30N 38°50' W 090°07'0 0.0
2018-Mar-21 08:00N 38°50' W 090°07'0 0.0
2018-Mar-21 07:31N 38°50' W 090°07'0 0.0
2018-Mar-21 07:01N 38°50' W 090°07'0 0.0
2018-Mar-21 06:31N 38°50' W 090°07'0 0.0
2018-Mar-21 05:59N 38°50' W 090°07'0 0.0
2018-Mar-21 05:30N 38°50' W 090°07'0 0.0
2018-Mar-21 05:01N 38°50' W 090°07'0 0.0
2018-Mar-21 04:30N 38°50' W 090°07'0 0.0
2018-Mar-21 04:01N 38°50' W 090°07'0 0.0
2018-Mar-21 03:31N 38°50' W 090°07'0 0.0
2018-Mar-21 03:00N 38°50' W 090°07'0 0.0
2018-Mar-21 02:30N 38°50' W 090°07'0 0.0
2018-Mar-21 02:00N 38°50' W 090°07'0 0.0
2018-Mar-21 01:24N 38°50' W 090°07'0 0.0
2018-Mar-21 01:00N 38°50' W 090°07'0 0.0
2018-Mar-21 00:30N 38°50' W 090°07'0 0.0
2018-Mar-21 00:01N 38°50' W 090°07'0 0.0
2018-Mar-20 23:30N 38°50' W 090°07'0 0.0
2018-Mar-20 22:59N 38°50' W 090°07'0 0.0
2018-Mar-20 22:30N 38°50' W 090°07'0 0.0
2018-Mar-20 21:59N 38°50' W 090°07'0 0.0
2018-Mar-20 21:25N 38°50' W 090°07'0 0.0
2018-Mar-20 20:59N 38°50' W 090°07'0 0.0
2018-Mar-20 20:30N 38°50' W 090°07'0 0.0
2018-Mar-20 19:59N 38°50' W 090°07'0 0.0
2018-Mar-20 19:31N 38°50' W 090°07'0 0.0
2018-Mar-20 18:59N 38°50' W 090°07'1 2.2
2018-Mar-20 18:30N 38°51' W 090°06'0 0.4
2018-Mar-20 18:00N 38°51' W 090°07'0 0.0
2018-Mar-20 17:31N 38°51' W 090°07'1 1.7
2018-Mar-20 17:01N 38°50' W 090°06'0 0.9
2018-Mar-20 16:30N 38°50' W 090°07'0 0.0
2018-Mar-20 15:59N 38°50' W 090°07'0 0.0
2018-Mar-20 15:30N 38°50' W 090°07'0 0.0
2018-Mar-20 15:00N 38°50' W 090°07'0 0.0
2018-Mar-20 14:29N 38°50' W 090°07'0 0.0
2018-Mar-20 13:59N 38°50' W 090°07'0 0.0
2018-Mar-20 13:29N 38°50' W 090°07'0 0.0
2018-Mar-20 12:59N 38°50' W 090°07'0 0.0
2018-Mar-20 12:30N 38°50' W 090°07'0 0.0
2018-Mar-20 11:59N 38°50' W 090°07'0 0.0
2018-Mar-20 11:30N 38°50' W 090°07'0 0.0
2018-Mar-20 11:01N 38°50' W 090°07'0 0.0
2018-Mar-20 10:30N 38°50' W 090°07'0 0.0
2018-Mar-20 10:01N 38°50' W 090°07'0 0.0
2018-Mar-20 09:31N 38°50' W 090°07'0 0.0
2018-Mar-20 09:00N 38°50' W 090°07'0 0.0
2018-Mar-20 08:30N 38°50' W 090°07'0 0.0
2018-Mar-20 08:01N 38°50' W 090°07'0 0.0
2018-Mar-20 07:31N 38°50' W 090°07'0 0.0
2018-Mar-20 07:00N 38°50' W 090°07'0 0.0
2018-Mar-20 06:30N 38°50' W 090°07'0 0.0
2018-Mar-20 06:01N 38°50' W 090°07'0 0.0
2018-Mar-20 05:30N 38°50' W 090°07'0 0.0
2018-Mar-20 05:00N 38°50' W 090°07'0 0.0
2018-Mar-20 04:31N 38°50' W 090°07'0 0.0
2018-Mar-20 04:00N 38°50' W 090°07'0 0.0
2018-Mar-20 03:31N 38°50' W 090°07'0 0.0
2018-Mar-20 03:01N 38°50' W 090°07'0 0.0
2018-Mar-20 02:31N 38°50' W 090°07'0 0.0
2018-Mar-20 02:01N 38°50' W 090°07'0 0.0
2018-Mar-20 01:30N 38°50' W 090°07'0 0.0
2018-Mar-20 01:00N 38°50' W 090°07'0 0.0
2018-Mar-20 00:30N 38°50' W 090°07'0 0.0
2018-Mar-20 00:01N 38°50' W 090°07'0 0.0
2018-Mar-19 23:27N 38°50' W 090°07'0 0.0
2018-Mar-19 23:00N 38°50' W 090°07'0 0.0
2018-Mar-19 22:25N 38°50' W 090°07'0 0.0
2018-Mar-19 22:00N 38°50' W 090°07'0 0.0
2018-Mar-19 21:30N 38°50' W 090°07'0 0.0
2018-Mar-19 21:00N 38°50' W 090°07'0 0.0
2018-Mar-19 20:30N 38°50' W 090°07'0 0.0
2018-Mar-19 20:01N 38°50' W 090°07'0 0.0
2018-Mar-19 19:29N 38°50' W 090°07'0 0.7
2018-Mar-19 19:01N 38°49' W 090°07'4 7.2
2018-Mar-19 18:31N 38°46' W 090°08'3 6.6
2018-Mar-19 18:00N 38°43' W 090°10'1 2.4
2018-Mar-19 17:29N 38°42' W 090°11'1 2.2
2018-Mar-19 17:00N 38°41' W 090°11'3 6.4
2018-Mar-19 16:30N 38°38' W 090°11'  
Track history (hours):
 
Tides and Currents Weather Stations Pressure Air Temp Water Temp Dewpoint Dewpoint Depression Visibility Wind Speed Wind Dir Waves Ship Positions

Ohio Valley

Owner: Marathon Petroleum Company LP, Findlay, OH. More information available from US FCC via Universal Licensing System and Coast Guard Vessel Documentation Center.

Last reported at 2018-Mar-28 00:46 UTC. Time now 2018-May-23 01:33 UTC.
Position N 38°38' W 090°11'.
Warning: this ship's position is 56 days out of date.

Length 45 m; draft 3 m.

Type: Towing. MMSI: 366984390.

Date/timePositionNaut miles runAvg speedWind from/ knotsBaromVisibWave heightAir tempDewpointWater temp
2018-Mar-28 00:46N 38°38' W 090°11'2 8.4
2018-Mar-28 00:29N 38°40' W 090°11'8 5.0
2018-Mar-27 22:50N 38°48' W 090°07'2 5.4
2018-Mar-27 22:31N 38°49' W 090°07'0 0.9
2018-Mar-27 22:00N 38°50' W 090°07'0 0.1
2018-Mar-27 21:27N 38°50' W 090°07'0 0.7
2018-Mar-27 21:00N 38°50' W 090°07'1 1.9
2018-Mar-27 20:31N 38°51' W 090°07'0 0.0
2018-Mar-27 20:01N 38°51' W 090°07'0 0.0
2018-Mar-27 19:31N 38°51' W 090°07'0 0.0
2018-Mar-27 19:01N 38°51' W 090°07'0 0.0
2018-Mar-27 18:31N 38°51' W 090°07'0 0.0
2018-Mar-27 18:01N 38°51' W 090°07'0 0.0
2018-Mar-27 17:31N 38°51' W 090°07'0 0.0
2018-Mar-27 17:01N 38°51' W 090°07'0 0.0
2018-Mar-27 16:31N 38°51' W 090°07'1 2.1
2018-Mar-27 16:01N 38°50' W 090°07'0 0.5
2018-Mar-27 15:30N 38°50' W 090°07'0 0.2
2018-Mar-27 15:01N 38°50' W 090°07'0 0.0
2018-Mar-27 14:31N 38°50' W 090°07'0 0.0
2018-Mar-27 14:00N 38°50' W 090°07'0 0.0
2018-Mar-27 13:31N 38°50' W 090°07'0 0.0
2018-Mar-27 13:00N 38°50' W 090°07'0 0.0
2018-Mar-27 12:31N 38°50' W 090°07'0 0.0
2018-Mar-27 12:01N 38°50' W 090°07'0 0.0
2018-Mar-27 11:30N 38°50' W 090°07'0 0.0
2018-Mar-27 11:01N 38°50' W 090°07'0 0.0
2018-Mar-27 10:31N 38°50' W 090°07'0 0.0
2018-Mar-27 10:01N 38°50' W 090°07'0 0.0
2018-Mar-27 09:31N 38°50' W 090°07'0 0.0
2018-Mar-27 09:01N 38°50' W 090°07'0 0.0
2018-Mar-27 08:31N 38°50' W 090°07'0 0.0
2018-Mar-27 08:00N 38°50' W 090°07'0 0.0
2018-Mar-27 07:31N 38°50' W 090°07'0 0.0
2018-Mar-27 07:01N 38°50' W 090°07'0 0.0
2018-Mar-27 06:31N 38°50' W 090°07'0 0.0
2018-Mar-27 06:01N 38°50' W 090°07'0 0.0
2018-Mar-27 05:31N 38°50' W 090°07'0 0.0
2018-Mar-27 05:01N 38°50' W 090°07'0 0.0
2018-Mar-27 04:31N 38°50' W 090°07'0 0.0
2018-Mar-27 04:01N 38°50' W 090°07'0 0.0
2018-Mar-27 03:31N 38°50' W 090°07'0 0.0
2018-Mar-27 03:01N 38°50' W 090°07'0 0.0
2018-Mar-27 02:31N 38°50' W 090°07'0 0.0
2018-Mar-27 02:01N 38°50' W 090°07'0 0.0
2018-Mar-27 01:31N 38°50' W 090°07'0 0.0
2018-Mar-27 01:01N 38°50' W 090°07'0 0.4
2018-Mar-27 00:30N 38°50' W 090°07'0 0.0
2018-Mar-26 23:57N 38°50' W 090°07'0 0.0
2018-Mar-26 23:31N 38°50' W 090°07'0 0.0
2018-Mar-26 23:00N 38°50' W 090°07'0 0.0
2018-Mar-26 22:31N 38°50' W 090°07'0 0.0
2018-Mar-26 22:01N 38°50' W 090°07'0 0.0
2018-Mar-26 21:31N 38°50' W 090°07'0 0.0
2018-Mar-26 21:01N 38°50' W 090°07'0 0.0
2018-Mar-26 20:30N 38°50' W 090°07'0 0.0
2018-Mar-26 20:01N 38°50' W 090°07'0 0.0
2018-Mar-26 19:30N 38°50' W 090°07'0 0.3
2018-Mar-26 19:00N 38°50' W 090°07'0 0.1
2018-Mar-26 18:31N 38°50' W 090°07'0 0.0
2018-Mar-26 18:01N 38°50' W 090°07'0 1.0
2018-Mar-26 17:31N 38°49' W 090°07'0 0.9
2018-Mar-26 17:01N 38°50' W 090°07'0 0.0
2018-Mar-26 16:31N 38°50' W 090°07'0 0.0
2018-Mar-26 15:59N 38°50' W 090°07'0 0.0
2018-Mar-26 15:31N 38°50' W 090°07'0 0.0
2018-Mar-26 14:58N 38°50' W 090°07'0 0.0
2018-Mar-26 14:30N 38°50' W 090°07'0 0.0
2018-Mar-26 14:00N 38°50' W 090°07'  
2018-Mar-23 06:36N 38°50' W 090°07'0 0.0
2018-Mar-23 06:31N 38°50' W 090°07'0 0.0
2018-Mar-23 05:59N 38°50' W 090°07'0 0.0
2018-Mar-23 05:30N 38°50' W 090°07'0 0.0
2018-Mar-23 05:00N 38°50' W 090°07'0 0.0
2018-Mar-23 04:31N 38°50' W 090°07'0 0.0
2018-Mar-23 04:00N 38°50' W 090°07'0 0.0
2018-Mar-23 03:31N 38°50' W 090°07'0 0.0
2018-Mar-23 03:00N 38°50' W 090°07'0 0.0
2018-Mar-23 02:31N 38°50' W 090°07'0 0.0
2018-Mar-23 01:59N 38°50' W 090°07'0 0.0
2018-Mar-23 01:30N 38°50' W 090°07'0 0.0
2018-Mar-23 01:01N 38°50' W 090°07'0 0.0
2018-Mar-23 00:30N 38°50' W 090°07'0 0.0
2018-Mar-23 00:00N 38°50' W 090°07'0 0.0
2018-Mar-22 23:30N 38°50' W 090°07'0 0.0
2018-Mar-22 23:01N 38°50' W 090°07'0 0.0
2018-Mar-22 22:31N 38°50' W 090°07'0 0.0
2018-Mar-22 22:00N 38°50' W 090°07'0 0.0
2018-Mar-22 21:30N 38°50' W 090°07'0 0.0
2018-Mar-22 21:01N 38°50' W 090°07'0 0.0
2018-Mar-22 20:31N 38°50' W 090°07'0 0.0
2018-Mar-22 20:01N 38°50' W 090°07'0 0.0
2018-Mar-22 19:30N 38°50' W 090°07'0 0.0
2018-Mar-22 19:01N 38°50' W 090°07'0 0.0
2018-Mar-22 18:31N 38°50' W 090°07'0 0.0
2018-Mar-22 18:00N 38°50' W 090°07'0 0.0
2018-Mar-22 17:30N 38°50' W 090°07'0 0.0
2018-Mar-22 17:00N 38°50' W 090°07'0 0.0
2018-Mar-22 16:31N 38°50' W 090°07'0 0.0
2018-Mar-22 16:01N 38°50' W 090°07'0 0.0
2018-Mar-22 15:30N 38°50' W 090°07'0 0.0
2018-Mar-22 15:00N 38°50' W 090°07'0 0.0
2018-Mar-22 14:30N 38°50' W 090°07'0 0.0
2018-Mar-22 14:00N 38°50' W 090°07'0 0.0
2018-Mar-22 13:31N 38°50' W 090°07'0 0.0
2018-Mar-22 13:01N 38°50' W 090°07'0 0.0
2018-Mar-22 12:31N 38°50' W 090°07'0 0.0
2018-Mar-22 12:01N 38°50' W 090°07'0 0.0
2018-Mar-22 11:31N 38°50' W 090°07'0 0.0
2018-Mar-22 11:01N 38°50' W 090°07'0 0.0
2018-Mar-22 10:31N 38°50' W 090°07'0 0.0
2018-Mar-22 10:00N 38°50' W 090°07'0 0.0
2018-Mar-22 09:29N 38°50' W 090°07'0 0.0
2018-Mar-22 09:01N 38°50' W 090°07'0 0.0
2018-Mar-22 08:31N 38°50' W 090°07'0 0.0
2018-Mar-22 08:01N 38°50' W 090°07'0 0.0
2018-Mar-22 07:31N 38°50' W 090°07'0 0.0
2018-Mar-22 07:01N 38°50' W 090°07'0 0.0
2018-Mar-22 06:30N 38°50' W 090°07'0 0.0
2018-Mar-22 06:01N 38°50' W 090°07'0 0.0
2018-Mar-22 05:31N 38°50' W 090°07'0 0.0
2018-Mar-22 05:01N 38°50' W 090°07'0 0.0
2018-Mar-22 04:31N 38°50' W 090°07'0 0.0
2018-Mar-22 04:00N 38°50' W 090°07'0 0.0
2018-Mar-22 03:31N 38°50' W 090°07'0 0.0
2018-Mar-22 03:01N 38°50' W 090°07'0 0.0
2018-Mar-22 02:31N 38°50' W 090°07'0 0.0
2018-Mar-22 02:01N 38°50' W 090°07'0 0.0
2018-Mar-22 01:31N 38°50' W 090°07'0 0.0
2018-Mar-22 00:59N 38°50' W 090°07'0 0.0
2018-Mar-22 00:31N 38°50' W 090°07'0 0.0
2018-Mar-22 00:01N 38°50' W 090°07'0 0.0
2018-Mar-21 23:30N 38°50' W 090°07'0 0.0
2018-Mar-21 23:00N 38°50' W 090°07'0 0.0
2018-Mar-21 22:30N 38°50' W 090°07'0 0.0
2018-Mar-21 21:54N 38°50' W 090°07'0 0.0
2018-Mar-21 21:29N 38°50' W 090°07'0 0.0
2018-Mar-21 20:59N 38°50' W 090°07'0 0.0
2018-Mar-21 20:30N 38°50' W 090°07'0 0.0
2018-Mar-21 20:01N 38°50' W 090°07'0 0.0
2018-Mar-21 19:31N 38°50' W 090°07'0 0.0
2018-Mar-21 18:58N 38°50' W 090°07'0 0.0
2018-Mar-21 18:30N 38°50' W 090°07'0 0.3
2018-Mar-21 18:00N 38°50' W 090°07'0 0.0
2018-Mar-21 17:16N 38°50' W 090°07'0 0.0
2018-Mar-21 16:51N 38°50' W 090°07'0 0.0
2018-Mar-21 16:31N 38°50' W 090°07'0 0.4
2018-Mar-21 16:00N 38°50' W 090°07'0 0.0
2018-Mar-21 15:29N 38°50' W 090°07'0 0.0
2018-Mar-21 15:00N 38°50' W 090°07'0 0.0
2018-Mar-21 14:31N 38°50' W 090°07'0 0.0
2018-Mar-21 14:00N 38°50' W 090°07'0 0.0
2018-Mar-21 13:31N 38°50' W 090°07'0 0.0
2018-Mar-21 13:01N 38°50' W 090°07'0 0.0
2018-Mar-21 12:29N 38°50' W 090°07'0 0.0
2018-Mar-21 11:59N 38°50' W 090°07'0 0.0
2018-Mar-21 11:30N 38°50' W 090°07'0 0.0
2018-Mar-21 11:00N 38°50' W 090°07'0 0.0
2018-Mar-21 10:31N 38°50' W 090°07'0 0.0
2018-Mar-21 10:01N 38°50' W 090°07'0 0.0
2018-Mar-21 09:30N 38°50' W 090°07'0 0.0
2018-Mar-21 09:01N 38°50' W 090°07'0 0.0
2018-Mar-21 08:30N 38°50' W 090°07'0 0.0
2018-Mar-21 08:00N 38°50' W 090°07'0 0.0
2018-Mar-21 07:31N 38°50' W 090°07'0 0.0
2018-Mar-21 07:01N 38°50' W 090°07'0 0.0
2018-Mar-21 06:31N 38°50' W 090°07'0 0.0
2018-Mar-21 05:59N 38°50' W 090°07'0 0.0
2018-Mar-21 05:30N 38°50' W 090°07'0 0.0
2018-Mar-21 05:01N 38°50' W 090°07'0 0.0
2018-Mar-21 04:30N 38°50' W 090°07'0 0.0
2018-Mar-21 04:01N 38°50' W 090°07'0 0.0
2018-Mar-21 03:31N 38°50' W 090°07'0 0.0
2018-Mar-21 03:00N 38°50' W 090°07'0 0.0
2018-Mar-21 02:30N 38°50' W 090°07'0 0.0
2018-Mar-21 02:00N 38°50' W 090°07'0 0.0
2018-Mar-21 01:24N 38°50' W 090°07'0 0.0
2018-Mar-21 01:00N 38°50' W 090°07'0 0.0
2018-Mar-21 00:30N 38°50' W 090°07'0 0.0
2018-Mar-21 00:01N 38°50' W 090°07'0 0.0
2018-Mar-20 23:30N 38°50' W 090°07'0 0.0
2018-Mar-20 22:59N 38°50' W 090°07'0 0.0
2018-Mar-20 22:30N 38°50' W 090°07'0 0.0
2018-Mar-20 21:59N 38°50' W 090°07'0 0.0
2018-Mar-20 21:25N 38°50' W 090°07'0 0.0
2018-Mar-20 20:59N 38°50' W 090°07'0 0.0
2018-Mar-20 20:30N 38°50' W 090°07'0 0.0
2018-Mar-20 19:59N 38°50' W 090°07'0 0.0
2018-Mar-20 19:31N 38°50' W 090°07'0 0.0
2018-Mar-20 18:59N 38°50' W 090°07'1 2.2
2018-Mar-20 18:30N 38°51' W 090°06'0 0.4
2018-Mar-20 18:00N 38°51' W 090°07'0 0.0
2018-Mar-20 17:31N 38°51' W 090°07'1 1.7
2018-Mar-20 17:01N 38°50' W 090°06'0 0.9
2018-Mar-20 16:30N 38°50' W 090°07'0 0.0
2018-Mar-20 15:59N 38°50' W 090°07'0 0.0
2018-Mar-20 15:30N 38°50' W 090°07'0 0.0
2018-Mar-20 15:00N 38°50' W 090°07'0 0.0
2018-Mar-20 14:29N 38°50' W 090°07'0 0.0
2018-Mar-20 13:59N 38°50' W 090°07'0 0.0
2018-Mar-20 13:29N 38°50' W 090°07'0 0.0
2018-Mar-20 12:59N 38°50' W 090°07'0 0.0
2018-Mar-20 12:30N 38°50' W 090°07'0 0.0
2018-Mar-20 11:59N 38°50' W 090°07'0 0.0
2018-Mar-20 11:30N 38°50' W 090°07'0 0.0
2018-Mar-20 11:01N 38°50' W 090°07'0 0.0
2018-Mar-20 10:30N 38°50' W 090°07'0 0.0
2018-Mar-20 10:01N 38°50' W 090°07'0 0.0
2018-Mar-20 09:31N 38°50' W 090°07'0 0.0
2018-Mar-20 09:00N 38°50' W 090°07'0 0.0
2018-Mar-20 08:30N 38°50' W 090°07'0 0.0
2018-Mar-20 08:01N 38°50' W 090°07'0 0.0
2018-Mar-20 07:31N 38°50' W 090°07'0 0.0
2018-Mar-20 07:00N 38°50' W 090°07'0 0.0
2018-Mar-20 06:30N 38°50' W 090°07'0 0.0
2018-Mar-20 06:01N 38°50' W 090°07'0 0.0
2018-Mar-20 05:30N 38°50' W 090°07'0 0.0
2018-Mar-20 05:00N 38°50' W 090°07'0 0.0
2018-Mar-20 04:31N 38°50' W 090°07'0 0.0
2018-Mar-20 04:00N 38°50' W 090°07'0 0.0
2018-Mar-20 03:31N 38°50' W 090°07'0 0.0
2018-Mar-20 03:01N 38°50' W 090°07'0 0.0
2018-Mar-20 02:31N 38°50' W 090°07'0 0.0
2018-Mar-20 02:01N 38°50' W 090°07'0 0.0
2018-Mar-20 01:30N 38°50' W 090°07'0 0.0
2018-Mar-20 01:00N 38°50' W 090°07'0 0.0
2018-Mar-20 00:30N 38°50' W 090°07'0 0.0
2018-Mar-20 00:01N 38°50' W 090°07'0 0.0
2018-Mar-19 23:27N 38°50' W 090°07'0 0.0
2018-Mar-19 23:00N 38°50' W 090°07'0 0.0
2018-Mar-19 22:25N 38°50' W 090°07'0 0.0
2018-Mar-19 22:00N 38°50' W 090°07'0 0.0
2018-Mar-19 21:30N 38°50' W 090°07'0 0.0
2018-Mar-19 21:00N 38°50' W 090°07'0 0.0
2018-Mar-19 20:30N 38°50' W 090°07'0 0.0
2018-Mar-19 20:01N 38°50' W 090°07'0 0.0
2018-Mar-19 19:29N 38°50' W 090°07'0 0.7
2018-Mar-19 19:01N 38°49' W 090°07'4 7.2
2018-Mar-19 18:31N 38°46' W 090°08'3 6.6
2018-Mar-19 18:00N 38°43' W 090°10'1 2.4
2018-Mar-19 17:29N 38°42' W 090°11'1 2.2
2018-Mar-19 17:00N 38°41' W 090°11'3 6.4
2018-Mar-19 16:30N 38°38' W 090°11'  

Dump ship's entire track history